Terminal Aerodrome Forecast
Issued by NWS Sterling, VA

Home | Current Version | Previous Version | Text Only | Print | Product List | Glossary On
Versions: 1 2 3 4 5 6 7 8 9 10 11 12 13 14 15 16 17 18 19 20 21 22 23
000
FTUS41 KLWX 311434 AAB
TAFBWI
TAF AMD
KBWI 311434Z 3115/0118 VRB03KT P6SM FEW060 SCT250
     FM010000 16005KT P6SM VCTS SCT060CB BKN250
     FM010300 17004KT P6SM SCT070 BKN250
     FM010800 VRB03KT P6SM BKN080 BKN090
     FM011500 35006KT P6SM BKN070=

USA.gov is the U.S. government's official web portal to all federal, state and local government web resources and services.